Flight Track Log - Related Links

Times and Time Zones

All times are in EST time to prevent confusion due to time zone crossing. See the N58BT flight status page for this flight to view local times or setup timezone preferences in your user account.

Time Position Orientation Groundspeed Altitude Reporting Facility
EST Latitude Longitude Course Direction KTS MPH feet Rate Location/Type
Thu 09:19:51 AM 26.0192 -81.7622 197° South 151 174 5,000  Level Miami Center
Thu 09:20:51 AM 25.9731 -81.7603 178° South 156 180 6,400 1,400 Climbing Miami Center
Thu 09:21:51 AM 25.9294 -81.7608 181° South 162 186 7,800 1,350 Climbing Miami Center
Thu 09:22:51 AM 25.8833 -81.7614 181° South 162 186 9,100 1,400 Climbing Miami Center
Thu 09:23:00 AM 25.7900 -81.7719 156° South  Level Estimated
Thu 09:23:51 AM 25.8292 -81.7614 180° South 170 196 10,600  Level Miami Center
Thu 09:24:00 AM 25.7296 -81.7713 197° South  Level Estimated
Thu 09:24:51 AM 25.7769 -81.7617 180° South 183 211 11,700  Level Miami Center
Thu 09:26:51 AM 25.6828 -81.7622 178° South 183 211 14,000 900 Climbing Miami Center
Thu 09:27:51 AM 25.6244 -81.7622 180° South 194 223 14,400 200 Climbing Miami Center
Thu 09:28:51 AM 25.5639 -81.7644 182° South 205 236 14,400  Level Miami Center
Thu 09:29:51 AM 25.5033 -81.7642 180° South 216 249 14,400  Level Miami Center
Thu 09:30:51 AM 25.4406 -81.7642 180° South 216 249 14,400  Level Miami Center
Thu 09:31:51 AM 25.3800 -81.7617 178° South 216 249 14,400  Level Miami Center
Thu 09:32:51 AM 25.3194 -81.7636 182° South 216 249 14,400  Level Miami Center
Thu 09:33:51 AM 25.2589 -81.7636 180° South 216 249 14,400  Level Miami Center
Thu 09:34:51 AM 25.1983 -81.7633 180° South 216 249 14,400 100 Level Miami Center
Thu 09:35:51 AM 25.1358 -81.7608 178° South 216 249 14,600 50 Climbing Miami Center
Thu 09:36:51 AM 25.0753 -81.7608 180° South 216 249 14,500 -50 Descending Miami Center
Thu 09:37:51 AM 25.0147 -81.7606 180° South 216 249 14,500 -650 Level Miami Center
Thu 09:38:51 AM 24.9519 -81.7628 182° South 216 249 13,200 -1,450 Descending Miami Center
Thu 09:39:51 AM 24.8894 -81.7625 180° South 221 254 11,600 -1,800 Descending Miami Center
Thu 09:40:51 AM 24.8308 -81.7625 180° South 221 254 9,600 -1,950 Descending Miami Center
Thu 09:41:51 AM 24.7742 -81.7694 186° South 215 247 7,700 -1,950 Descending Miami Center
Thu 09:42:51 AM 24.7153 -81.7831 192° South 205 236 5,700 -1,700 Descending Miami Center
Thu 09:43:51 AM 24.6650 -81.7903 187° South 198 228 4,300 -1,300 Descending Miami Center
Thu 09:44:51 AM 24.6186 -81.8067 198° South 188 216 3,100 -1,200 Descending Miami Center
Thu 09:45:51 AM 24.5761 -81.8256 202° Southwest 183 211 1,900 -950 Descending Miami Center
Thu 09:46:51 AM 24.5475 -81.8106 155° Southeast 149 171 1,200 -700 Descending Miami Center
Thu 09:48:00 AM 24.5561 -81.7596 87° East  Level Estimated
Thu 09:55:00 AM 24.5561 -81.7596 180° South  Level Estimated
Thu 09:56:00 AM 24.5561 -81.7596 180° South  Level Estimated
Thu 09:57:00 AM 24.5561 -81.7596 180° South  Level Estimated

Login

Don't have an account? Register now (free) for customized features, flight alerts, and more!